<?xml version="1.0" encoding="UTF-8" standalone="no" ?>
<gpx xmlns="http://www.topografix.com/GPX/1/1" xmlns:xsi="http://www.w3.org/2001/XMLSchema-instance" xsi:schemaLocation="http://www.topografix.com/GPX/1/1 http://www.topografix.com/GPX/1/1/gpx.xsd" version="1.1" creator="VisuGPX - https://www.visugpx.com">
  <metadata>
    <name>L'Habitarelle - Gras de Nave</name>
    <desc><![CDATA[Un parcours sur les gras de naves autour du bois du Talon]]></desc>
  </metadata>
  <trk>
    <name><![CDATA[8 févr. 2019]]></name>
    <cmt><![CDATA[1:50:19 PM]]></cmt>
    <desc><![CDATA[comment ...]]></desc>
    <trkseg>
      <trkpt lat="44.40152" lon="4.1491">
        <ele>258</ele>
        <time>2019-02-08T12:50:19Z</time>
      </trkpt>
      <trkpt lat="44.4015" lon="4.14911">
        <ele>257</ele>
        <time>2019-02-08T12:50:20Z</time>
      </trkpt>
      <trkpt lat="44.40147" lon="4.14914">
        <ele>256</ele>
        <time>2019-02-08T12:50:23Z</time>
      </trkpt>
      <trkpt lat="44.4014" lon="4.14918">
        <ele>256</ele>
        <time>2019-02-08T12:50:29Z</time>
      </trkpt>
      <trkpt lat="44.40137" lon="4.1492">
        <ele>257</ele>
        <time>2019-02-08T12:50:32Z</time>
      </trkpt>
      <trkpt lat="44.40125" lon="4.14933">
        <ele>257</ele>
        <time>2019-02-08T12:50:48Z</time>
      </trkpt>
      <trkpt lat="44.40123" lon="4.14937">
        <ele>257</ele>
        <time>2019-02-08T12:50:51Z</time>
      </trkpt>
      <trkpt lat="44.40115" lon="4.14943">
        <ele>256</ele>
        <time>2019-02-08T12:51:02Z</time>
      </trkpt>
      <trkpt lat="44.40112" lon="4.14944">
        <ele>256</ele>
        <time>2019-02-08T12:51:05Z</time>
      </trkpt>
      <trkpt lat="44.40109" lon="4.14941">
        <ele>257</ele>
        <time>2019-02-08T12:51:09Z</time>
      </trkpt>
      <trkpt lat="44.40109" lon="4.14936">
        <ele>257</ele>
        <time>2019-02-08T12:51:13Z</time>
      </trkpt>
      <trkpt lat="44.40111" lon="4.14933">
        <ele>257</ele>
        <time>2019-02-08T12:51:16Z</time>
      </trkpt>
      <trkpt lat="44.40114" lon="4.14929">
        <ele>257</ele>
        <time>2019-02-08T12:51:19Z</time>
      </trkpt>
      <trkpt lat="44.40128" lon="4.14895">
        <ele>259</ele>
        <time>2019-02-08T12:51:49Z</time>
      </trkpt>
      <trkpt lat="44.40131" lon="4.14887">
        <ele>259</ele>
        <time>2019-02-08T12:51:55Z</time>
      </trkpt>
      <trkpt lat="44.40133" lon="4.14879">
        <ele>259</ele>
        <time>2019-02-08T12:52:01Z</time>
      </trkpt>
      <trkpt lat="44.40134" lon="4.14875">
        <ele>259</ele>
        <time>2019-02-08T12:52:04Z</time>
      </trkpt>
      <trkpt lat="44.40133" lon="4.1487">
        <ele>259</ele>
        <time>2019-02-08T12:52:07Z</time>
      </trkpt>
      <trkpt lat="44.40133" lon="4.14861">
        <ele>259</ele>
        <time>2019-02-08T12:52:13Z</time>
      </trkpt>
      <trkpt lat="44.40132" lon="4.14842">
        <ele>258</ele>
        <time>2019-02-08T12:52:27Z</time>
      </trkpt>
      <trkpt lat="44.4013" lon="4.14838">
        <ele>258</ele>
        <time>2019-02-08T12:52:30Z</time>
      </trkpt>
      <trkpt lat="44.40128" lon="4.14835">
        <ele>258</ele>
        <time>2019-02-08T12:52:33Z</time>
      </trkpt>
      <trkpt lat="44.40125" lon="4.14833">
        <ele>258</ele>
        <time>2019-02-08T12:52:36Z</time>
      </trkpt>
      <trkpt lat="44.4011" lon="4.14822">
        <ele>258</ele>
        <time>2019-02-08T12:52:55Z</time>
      </trkpt>
      <trkpt lat="44.40108" lon="4.14819">
        <ele>258</ele>
        <time>2019-02-08T12:52:58Z</time>
      </trkpt>
      <trkpt lat="44.40106" lon="4.14815">
        <ele>258</ele>
        <time>2019-02-08T12:53:01Z</time>
      </trkpt>
      <trkpt lat="44.40104" lon="4.14812">
        <ele>258</ele>
        <time>2019-02-08T12:53:04Z</time>
      </trkpt>
      <trkpt lat="44.40101" lon="4.14809">
        <ele>259</ele>
        <time>2019-02-08T12:53:07Z</time>
      </trkpt>
      <trkpt lat="44.40096" lon="4.14804">
        <ele>259</ele>
        <time>2019-02-08T12:53:14Z</time>
      </trkpt>
      <trkpt lat="44.40094" lon="4.14802">
        <ele>259</ele>
        <time>2019-02-08T12:53:17Z</time>
      </trkpt>
      <trkpt lat="44.40093" lon="4.14797">
        <ele>259</ele>
        <time>2019-02-08T12:53:20Z</time>
      </trkpt>
      <trkpt lat="44.4009" lon="4.14794">
        <ele>259</ele>
        <time>2019-02-08T12:53:23Z</time>
      </trkpt>
      <trkpt lat="44.40085" lon="4.14784">
        <ele>260</ele>
        <time>2019-02-08T12:53:32Z</time>
      </trkpt>
      <trkpt lat="44.40083" lon="4.14781">
        <ele>260</ele>
        <time>2019-02-08T12:53:35Z</time>
      </trkpt>
      <trkpt lat="44.40078" lon="4.14769">
        <ele>261</ele>
        <time>2019-02-08T12:53:51Z</time>
      </trkpt>
      <trkpt lat="44.40072" lon="4.14757">
        <ele>261</ele>
        <time>2019-02-08T12:54:02Z</time>
      </trkpt>
      <trkpt lat="44.4006" lon="4.14737">
        <ele>264</ele>
        <time>2019-02-08T12:54:22Z</time>
      </trkpt>
      <trkpt lat="44.40058" lon="4.14733">
        <ele>264</ele>
        <time>2019-02-08T12:54:26Z</time>
      </trkpt>
      <trkpt lat="44.40052" lon="4.1472">
        <ele>266</ele>
        <time>2019-02-08T12:54:39Z</time>
      </trkpt>
      <trkpt lat="44.4005" lon="4.14716">
        <ele>267</ele>
        <time>2019-02-08T12:54:43Z</time>
      </trkpt>
      <trkpt lat="44.40049" lon="4.14713">
        <ele>267</ele>
        <time>2019-02-08T12:54:46Z</time>
      </trkpt>
      <trkpt lat="44.40047" lon="4.14709">
        <ele>268</ele>
        <time>2019-02-08T12:54:50Z</time>
      </trkpt>
      <trkpt lat="44.40046" lon="4.14706">
        <ele>269</ele>
        <time>2019-02-08T12:54:53Z</time>
      </trkpt>
      <trkpt lat="44.40043" lon="4.14698">
        <ele>270</ele>
        <time>2019-02-08T12:55:01Z</time>
      </trkpt>
      <trkpt lat="44.40038" lon="4.14691">
        <ele>270</ele>
        <time>2019-02-08T12:55:09Z</time>
      </trkpt>
      <trkpt lat="44.40035" lon="4.14684">
        <ele>270</ele>
        <time>2019-02-08T12:55:15Z</time>
      </trkpt>
      <trkpt lat="44.40034" lon="4.1468">
        <ele>270</ele>
        <time>2019-02-08T12:55:18Z</time>
      </trkpt>
      <trkpt lat="44.40033" lon="4.14671">
        <ele>270</ele>
        <time>2019-02-08T12:55:25Z</time>
      </trkpt>
      <trkpt lat="44.40031" lon="4.14667">
        <ele>271</ele>
        <time>2019-02-08T12:55:29Z</time>
      </trkpt>
      <trkpt lat="44.40019" lon="4.14639">
        <ele>275</ele>
        <time>2019-02-08T12:55:58Z</time>
      </trkpt>
      <trkpt lat="44.40017" lon="4.14636">
        <ele>275</ele>
        <time>2019-02-08T12:56:02Z</time>
      </trkpt>
      <trkpt lat="44.40014" lon="4.14632">
        <ele>276</ele>
        <time>2019-02-08T12:56:06Z</time>
      </trkpt>
      <trkpt lat="44.40013" lon="4.14629">
        <ele>276</ele>
        <time>2019-02-08T12:56:09Z</time>
      </trkpt>
      <trkpt lat="44.39998" lon="4.14595">
        <ele>278</ele>
        <time>2019-02-08T12:56:40Z</time>
      </trkpt>
      <trkpt lat="44.39994" lon="4.14584">
        <ele>279</ele>
        <time>2019-02-08T12:56:49Z</time>
      </trkpt>
      <trkpt lat="44.39993" lon="4.14579">
        <ele>280</ele>
        <time>2019-02-08T12:56:53Z</time>
      </trkpt>
      <trkpt lat="44.39979" lon="4.14547">
        <ele>283</ele>
        <time>2019-02-08T12:57:23Z</time>
      </trkpt>
      <trkpt lat="44.39976" lon="4.14539">
        <ele>284</ele>
        <time>2019-02-08T12:57:29Z</time>
      </trkpt>
      <trkpt lat="44.39974" lon="4.14532">
        <ele>285</ele>
        <time>2019-02-08T12:57:35Z</time>
      </trkpt>
      <trkpt lat="44.3997" lon="4.1452">
        <ele>286</ele>
        <time>2019-02-08T12:57:45Z</time>
      </trkpt>
      <trkpt lat="44.39963" lon="4.145">
        <ele>287</ele>
        <time>2019-02-08T12:58:08Z</time>
      </trkpt>
      <trkpt lat="44.39959" lon="4.14494">
        <ele>287</ele>
        <time>2019-02-08T12:58:15Z</time>
      </trkpt>
      <trkpt lat="44.39957" lon="4.14491">
        <ele>287</ele>
        <time>2019-02-08T12:58:18Z</time>
      </trkpt>
      <trkpt lat="44.39954" lon="4.1449">
        <ele>287</ele>
        <time>2019-02-08T12:58:21Z</time>
      </trkpt>
      <trkpt lat="44.3995" lon="4.1449">
        <ele>287</ele>
        <time>2019-02-08T12:58:25Z</time>
      </trkpt>
      <trkpt lat="44.39947" lon="4.1449">
        <ele>286</ele>
        <time>2019-02-08T12:58:28Z</time>
      </trkpt>
      <trkpt lat="44.39916" lon="4.14498">
        <ele>286</ele>
        <time>2019-02-08T12:59:00Z</time>
      </trkpt>
      <trkpt lat="44.39904" lon="4.14502">
        <ele>286</ele>
        <time>2019-02-08T12:59:13Z</time>
      </trkpt>
      <trkpt lat="44.39876" lon="4.1452">
        <ele>285</ele>
        <time>2019-02-08T12:59:46Z</time>
      </trkpt>
      <trkpt lat="44.39867" lon="4.14524">
        <ele>285</ele>
        <time>2019-02-08T12:59:55Z</time>
      </trkpt>
      <trkpt lat="44.39841" lon="4.14549">
        <ele>284</ele>
        <time>2019-02-08T13:00:27Z</time>
      </trkpt>
      <trkpt lat="44.3983" lon="4.14563">
        <ele>283</ele>
        <time>2019-02-08T13:00:42Z</time>
      </trkpt>
      <trkpt lat="44.39825" lon="4.14568">
        <ele>283</ele>
        <time>2019-02-08T13:00:51Z</time>
      </trkpt>
      <trkpt lat="44.39823" lon="4.14572">
        <ele>283</ele>
        <time>2019-02-08T13:00:56Z</time>
      </trkpt>
      <trkpt lat="44.39821" lon="4.14576">
        <ele>282</ele>
        <time>2019-02-08T13:01:00Z</time>
      </trkpt>
      <trkpt lat="44.3982" lon="4.1458">
        <ele>281</ele>
        <time>2019-02-08T13:01:07Z</time>
      </trkpt>
      <trkpt lat="44.39814" lon="4.14589">
        <ele>281</ele>
        <time>2019-02-08T13:01:16Z</time>
      </trkpt>
      <trkpt lat="44.3981" lon="4.14595">
        <ele>281</ele>
        <time>2019-02-08T13:01:23Z</time>
      </trkpt>
      <trkpt lat="44.39808" lon="4.14598">
        <ele>281</ele>
        <time>2019-02-08T13:01:27Z</time>
      </trkpt>
      <trkpt lat="44.39806" lon="4.14602">
        <ele>280</ele>
        <time>2019-02-08T13:01:31Z</time>
      </trkpt>
      <trkpt lat="44.39791" lon="4.14635">
        <ele>279</ele>
        <time>2019-02-08T13:02:03Z</time>
      </trkpt>
      <trkpt lat="44.39788" lon="4.14642">
        <ele>279</ele>
        <time>2019-02-08T13:02:09Z</time>
      </trkpt>
      <trkpt lat="44.39784" lon="4.14648">
        <ele>279</ele>
        <time>2019-02-08T13:02:15Z</time>
      </trkpt>
      <trkpt lat="44.39773" lon="4.14654">
        <ele>278</ele>
        <time>2019-02-08T13:02:33Z</time>
      </trkpt>
      <trkpt lat="44.39763" lon="4.14655">
        <ele>277</ele>
        <time>2019-02-08T13:02:43Z</time>
      </trkpt>
      <trkpt lat="44.3976" lon="4.14656">
        <ele>277</ele>
        <time>2019-02-08T13:02:47Z</time>
      </trkpt>
      <trkpt lat="44.39757" lon="4.14656">
        <ele>277</ele>
        <time>2019-02-08T13:02:50Z</time>
      </trkpt>
      <trkpt lat="44.39751" lon="4.14657">
        <ele>277</ele>
        <time>2019-02-08T13:02:56Z</time>
      </trkpt>
      <trkpt lat="44.39749" lon="4.14659">
        <ele>277</ele>
        <time>2019-02-08T13:02:59Z</time>
      </trkpt>
      <trkpt lat="44.39745" lon="4.14661">
        <ele>277</ele>
        <time>2019-02-08T13:03:03Z</time>
      </trkpt>
      <trkpt lat="44.39739" lon="4.14664">
        <ele>276</ele>
        <time>2019-02-08T13:03:10Z</time>
      </trkpt>
      <trkpt lat="44.39725" lon="4.14666">
        <ele>274</ele>
        <time>2019-02-08T13:03:25Z</time>
      </trkpt>
      <trkpt lat="44.39722" lon="4.14666">
        <ele>274</ele>
        <time>2019-02-08T13:03:29Z</time>
      </trkpt>
      <trkpt lat="44.39703" lon="4.14663">
        <ele>273</ele>
        <time>2019-02-08T13:03:50Z</time>
      </trkpt>
      <trkpt lat="44.397" lon="4.14662">
        <ele>274</ele>
        <time>2019-02-08T13:03:54Z</time>
      </trkpt>
      <trkpt lat="44.39697" lon="4.14662">
        <ele>273</ele>
        <time>2019-02-08T13:03:58Z</time>
      </trkpt>
      <trkpt lat="44.39694" lon="4.14663">
        <ele>273</ele>
        <time>2019-02-08T13:04:02Z</time>
      </trkpt>
      <trkpt lat="44.39693" lon="4.14668">
        <ele>273</ele>
        <time>2019-02-08T13:04:06Z</time>
      </trkpt>
      <trkpt lat="44.3969" lon="4.14671">
        <ele>272</ele>
        <time>2019-02-08T13:04:10Z</time>
      </trkpt>
      <trkpt lat="44.39687" lon="4.14672">
        <ele>272</ele>
        <time>2019-02-08T13:04:15Z</time>
      </trkpt>
      <trkpt lat="44.39685" lon="4.1467">
        <ele>272</ele>
        <time>2019-02-08T13:04:22Z</time>
      </trkpt>
      <trkpt lat="44.39679" lon="4.14672">
        <ele>271</ele>
        <time>2019-02-08T13:04:32Z</time>
      </trkpt>
      <trkpt lat="44.39676" lon="4.14671">
        <ele>271</ele>
        <time>2019-02-08T13:04:36Z</time>
      </trkpt>
      <trkpt lat="44.39674" lon="4.1467">
        <ele>271</ele>
        <time>2019-02-08T13:04:39Z</time>
      </trkpt>
      <trkpt lat="44.39661" lon="4.14666">
        <ele>271</ele>
        <time>2019-02-08T13:04:51Z</time>
      </trkpt>
      <trkpt lat="44.39642" lon="4.14669">
        <ele>270</ele>
        <time>2019-02-08T13:05:11Z</time>
      </trkpt>
      <trkpt lat="44.39639" lon="4.14669">
        <ele>270</ele>
        <time>2019-02-08T13:05:14Z</time>
      </trkpt>
      <trkpt lat="44.39635" lon="4.1467">
        <ele>270</ele>
        <time>2019-02-08T13:05:18Z</time>
      </trkpt>
      <trkpt lat="44.39627" lon="4.14674">
        <ele>269</ele>
        <time>2019-02-08T13:05:28Z</time>
      </trkpt>
      <trkpt lat="44.39625" lon="4.14675">
        <ele>268</ele>
        <time>2019-02-08T13:05:31Z</time>
      </trkpt>
      <trkpt lat="44.39606" lon="4.1468">
        <ele>268</ele>
        <time>2019-02-08T13:05:52Z</time>
      </trkpt>
      <trkpt lat="44.39603" lon="4.1468">
        <ele>268</ele>
        <time>2019-02-08T13:05:55Z</time>
      </trkpt>
      <trkpt lat="44.39596" lon="4.14682">
        <ele>268</ele>
        <time>2019-02-08T13:06:03Z</time>
      </trkpt>
      <trkpt lat="44.39588" lon="4.14688">
        <ele>266</ele>
        <time>2019-02-08T13:06:14Z</time>
      </trkpt>
      <trkpt lat="44.39576" lon="4.14694">
        <ele>265</ele>
        <time>2019-02-08T13:06:26Z</time>
      </trkpt>
      <trkpt lat="44.39567" lon="4.14695">
        <ele>264</ele>
        <time>2019-02-08T13:06:36Z</time>
      </trkpt>
      <trkpt lat="44.39565" lon="4.14697">
        <ele>264</ele>
        <time>2019-02-08T13:06:39Z</time>
      </trkpt>
      <trkpt lat="44.39555" lon="4.14698">
        <ele>264</ele>
        <time>2019-02-08T13:06:50Z</time>
      </trkpt>
      <trkpt lat="44.39546" lon="4.14703">
        <ele>264</ele>
        <time>2019-02-08T13:07:00Z</time>
      </trkpt>
      <trkpt lat="44.39543" lon="4.14706">
        <ele>263</ele>
        <time>2019-02-08T13:07:04Z</time>
      </trkpt>
      <trkpt lat="44.3954" lon="4.14705">
        <ele>263</ele>
        <time>2019-02-08T13:07:08Z</time>
      </trkpt>
      <trkpt lat="44.39531" lon="4.14712">
        <ele>262</ele>
        <time>2019-02-08T13:07:17Z</time>
      </trkpt>
      <trkpt lat="44.39529" lon="4.14715">
        <ele>262</ele>
        <time>2019-02-08T13:07:20Z</time>
      </trkpt>
      <trkpt lat="44.39524" lon="4.1472">
        <ele>262</ele>
        <time>2019-02-08T13:07:26Z</time>
      </trkpt>
      <trkpt lat="44.39517" lon="4.14726">
        <ele>261</ele>
        <time>2019-02-08T13:07:37Z</time>
      </trkpt>
      <trkpt lat="44.39492" lon="4.14733">
        <ele>261</ele>
        <time>2019-02-08T13:08:05Z</time>
      </trkpt>
      <trkpt lat="44.39489" lon="4.14733">
        <ele>261</ele>
        <time>2019-02-08T13:08:08Z</time>
      </trkpt>
      <trkpt lat="44.39488" lon="4.14737">
        <ele>264</ele>
        <time>2019-02-08T13:12:53Z</time>
      </trkpt>
      <trkpt lat="44.39485" lon="4.14737">
        <ele>262</ele>
        <time>2019-02-08T13:12:57Z</time>
      </trkpt>
      <trkpt lat="44.39482" lon="4.14736">
        <ele>261</ele>
        <time>2019-02-08T13:13:00Z</time>
      </trkpt>
      <trkpt lat="44.3948" lon="4.14739">
        <ele>260</ele>
        <time>2019-02-08T13:13:05Z</time>
      </trkpt>
      <trkpt lat="44.39476" lon="4.14739">
        <ele>260</ele>
        <time>2019-02-08T13:13:09Z</time>
      </trkpt>
      <trkpt lat="44.39473" lon="4.1474">
        <ele>261</ele>
        <time>2019-02-08T13:13:13Z</time>
      </trkpt>
      <trkpt lat="44.3945" lon="4.14751">
        <ele>260</ele>
        <time>2019-02-08T13:13:46Z</time>
      </trkpt>
      <trkpt lat="44.39445" lon="4.14755">
        <ele>260</ele>
        <time>2019-02-08T13:13:54Z</time>
      </trkpt>
      <trkpt lat="44.39424" lon="4.14767">
        <ele>260</ele>
        <time>2019-02-08T13:14:23Z</time>
      </trkpt>
      <trkpt lat="44.39421" lon="4.14769">
        <ele>260</ele>
        <time>2019-02-08T13:14:26Z</time>
      </trkpt>
      <trkpt lat="44.39415" lon="4.14778">
        <ele>261</ele>
        <time>2019-02-08T13:14:38Z</time>
      </trkpt>
      <trkpt lat="44.39401" lon="4.14797">
        <ele>263</ele>
        <time>2019-02-08T13:15:00Z</time>
      </trkpt>
      <trkpt lat="44.39398" lon="4.14799">
        <ele>263</ele>
        <time>2019-02-08T13:15:04Z</time>
      </trkpt>
      <trkpt lat="44.39388" lon="4.14808">
        <ele>264</ele>
        <time>2019-02-08T13:15:20Z</time>
      </trkpt>
      <trkpt lat="44.39369" lon="4.14827">
        <ele>265</ele>
        <time>2019-02-08T13:15:45Z</time>
      </trkpt>
      <trkpt lat="44.39365" lon="4.14833">
        <ele>266</ele>
        <time>2019-02-08T13:15:53Z</time>
      </trkpt>
      <trkpt lat="44.3936" lon="4.14838">
        <ele>265</ele>
        <time>2019-02-08T13:16:00Z</time>
      </trkpt>
      <trkpt lat="44.39355" lon="4.14843">
        <ele>266</ele>
        <time>2019-02-08T13:16:08Z</time>
      </trkpt>
      <trkpt lat="44.39346" lon="4.14848">
        <ele>268</ele>
        <time>2019-02-08T13:16:21Z</time>
      </trkpt>
      <trkpt lat="44.3934" lon="4.14851">
        <ele>269</ele>
        <time>2019-02-08T13:16:29Z</time>
      </trkpt>
      <trkpt lat="44.39333" lon="4.14858">
        <ele>270</ele>
        <time>2019-02-08T13:16:39Z</time>
      </trkpt>
      <trkpt lat="44.39331" lon="4.14863">
        <ele>270</ele>
        <time>2019-02-08T13:16:43Z</time>
      </trkpt>
      <trkpt lat="44.39328" lon="4.14866">
        <ele>270</ele>
        <time>2019-02-08T13:16:47Z</time>
      </trkpt>
      <trkpt lat="44.39326" lon="4.14869">
        <ele>270</ele>
        <time>2019-02-08T13:16:52Z</time>
      </trkpt>
      <trkpt lat="44.39318" lon="4.14877">
        <ele>271</ele>
        <time>2019-02-08T13:17:04Z</time>
      </trkpt>
      <trkpt lat="44.39316" lon="4.1488">
        <ele>271</ele>
        <time>2019-02-08T13:17:08Z</time>
      </trkpt>
      <trkpt lat="44.39311" lon="4.14889">
        <ele>270</ele>
        <time>2019-02-08T13:17:17Z</time>
      </trkpt>
      <trkpt lat="44.3931" lon="4.14894">
        <ele>270</ele>
        <time>2019-02-08T13:17:21Z</time>
      </trkpt>
      <trkpt lat="44.39305" lon="4.14918">
        <ele>271</ele>
        <time>2019-02-08T13:17:46Z</time>
      </trkpt>
      <trkpt lat="44.393" lon="4.14927">
        <ele>271</ele>
        <time>2019-02-08T13:17:58Z</time>
      </trkpt>
      <trkpt lat="44.39298" lon="4.1493">
        <ele>271</ele>
        <time>2019-02-08T13:18:02Z</time>
      </trkpt>
      <trkpt lat="44.39292" lon="4.1494">
        <ele>271</ele>
        <time>2019-02-08T13:18:14Z</time>
      </trkpt>
      <trkpt lat="44.39289" lon="4.14942">
        <ele>271</ele>
        <time>2019-02-08T13:18:17Z</time>
      </trkpt>
      <trkpt lat="44.39281" lon="4.14953">
        <ele>272</ele>
        <time>2019-02-08T13:18:40Z</time>
      </trkpt>
      <trkpt lat="44.39277" lon="4.1496">
        <ele>272</ele>
        <time>2019-02-08T13:18:48Z</time>
      </trkpt>
      <trkpt lat="44.39265" lon="4.14974">
        <ele>271</ele>
        <time>2019-02-08T13:19:06Z</time>
      </trkpt>
      <trkpt lat="44.39249" lon="4.14996">
        <ele>271</ele>
        <time>2019-02-08T13:19:30Z</time>
      </trkpt>
      <trkpt lat="44.39245" lon="4.15001">
        <ele>271</ele>
        <time>2019-02-08T13:19:37Z</time>
      </trkpt>
      <trkpt lat="44.39244" lon="4.15006">
        <ele>271</ele>
        <time>2019-02-08T13:19:42Z</time>
      </trkpt>
      <trkpt lat="44.39239" lon="4.15021">
        <ele>271</ele>
        <time>2019-02-08T13:19:56Z</time>
      </trkpt>
      <trkpt lat="44.39231" lon="4.15053">
        <ele>272</ele>
        <time>2019-02-08T13:20:28Z</time>
      </trkpt>
      <trkpt lat="44.39228" lon="4.15061">
        <ele>272</ele>
        <time>2019-02-08T13:20:36Z</time>
      </trkpt>
      <trkpt lat="44.39225" lon="4.15069">
        <ele>271</ele>
        <time>2019-02-08T13:20:44Z</time>
      </trkpt>
      <trkpt lat="44.39222" lon="4.15071">
        <ele>271</ele>
        <time>2019-02-08T13:20:48Z</time>
      </trkpt>
      <trkpt lat="44.39221" lon="4.15076">
        <ele>271</ele>
        <time>2019-02-08T13:20:52Z</time>
      </trkpt>
      <trkpt lat="44.39212" lon="4.1509">
        <ele>270</ele>
        <time>2019-02-08T13:21:07Z</time>
      </trkpt>
      <trkpt lat="44.39211" lon="4.15094">
        <ele>270</ele>
        <time>2019-02-08T13:21:10Z</time>
      </trkpt>
      <trkpt lat="44.39211" lon="4.15098">
        <ele>271</ele>
        <time>2019-02-08T13:21:13Z</time>
      </trkpt>
      <trkpt lat="44.39209" lon="4.15101">
        <ele>271</ele>
        <time>2019-02-08T13:21:17Z</time>
      </trkpt>
      <trkpt lat="44.39209" lon="4.15106">
        <ele>272</ele>
        <time>2019-02-08T13:21:20Z</time>
      </trkpt>
      <trkpt lat="44.39208" lon="4.15129">
        <ele>272</ele>
        <time>2019-02-08T13:21:40Z</time>
      </trkpt>
      <trkpt lat="44.39206" lon="4.15138">
        <ele>271</ele>
        <time>2019-02-08T13:21:48Z</time>
      </trkpt>
      <trkpt lat="44.39205" lon="4.1516">
        <ele>271</ele>
        <time>2019-02-08T13:22:48Z</time>
      </trkpt>
      <trkpt lat="44.39204" lon="4.15186">
        <ele>271</ele>
        <time>2019-02-08T13:23:09Z</time>
      </trkpt>
      <trkpt lat="44.39204" lon="4.15194">
        <ele>272</ele>
        <time>2019-02-08T13:23:17Z</time>
      </trkpt>
      <trkpt lat="44.39205" lon="4.15199">
        <ele>272</ele>
        <time>2019-02-08T13:23:21Z</time>
      </trkpt>
      <trkpt lat="44.39206" lon="4.15216">
        <ele>271</ele>
        <time>2019-02-08T13:23:33Z</time>
      </trkpt>
      <trkpt lat="44.39205" lon="4.15225">
        <ele>271</ele>
        <time>2019-02-08T13:23:41Z</time>
      </trkpt>
      <trkpt lat="44.39206" lon="4.15238">
        <ele>270</ele>
        <time>2019-02-08T13:23:52Z</time>
      </trkpt>
      <trkpt lat="44.39206" lon="4.15243">
        <ele>269</ele>
        <time>2019-02-08T13:23:56Z</time>
      </trkpt>
      <trkpt lat="44.39206" lon="4.15247">
        <ele>268</ele>
        <time>2019-02-08T13:23:59Z</time>
      </trkpt>
      <trkpt lat="44.39205" lon="4.15256">
        <ele>268</ele>
        <time>2019-02-08T13:24:08Z</time>
      </trkpt>
      <trkpt lat="44.39205" lon="4.15287">
        <ele>269</ele>
        <time>2019-02-08T13:24:30Z</time>
      </trkpt>
      <trkpt lat="44.39205" lon="4.15297">
        <ele>269</ele>
        <time>2019-02-08T13:24:37Z</time>
      </trkpt>
      <trkpt lat="44.39204" lon="4.153">
        <ele>269</ele>
        <time>2019-02-08T13:24:40Z</time>
      </trkpt>
      <trkpt lat="44.39206" lon="4.15313">
        <ele>271</ele>
        <time>2019-02-08T13:24:50Z</time>
      </trkpt>
      <trkpt lat="44.39207" lon="4.15317">
        <ele>271</ele>
        <time>2019-02-08T13:24:53Z</time>
      </trkpt>
      <trkpt lat="44.39208" lon="4.15326">
        <ele>270</ele>
        <time>2019-02-08T13:25:01Z</time>
      </trkpt>
      <trkpt lat="44.39208" lon="4.15331">
        <ele>270</ele>
        <time>2019-02-08T13:25:05Z</time>
      </trkpt>
      <trkpt lat="44.39209" lon="4.15374">
        <ele>267</ele>
        <time>2019-02-08T13:25:38Z</time>
      </trkpt>
      <trkpt lat="44.3921" lon="4.15388">
        <ele>267</ele>
        <time>2019-02-08T13:25:49Z</time>
      </trkpt>
      <trkpt lat="44.39214" lon="4.15406">
        <ele>267</ele>
        <time>2019-02-08T13:26:03Z</time>
      </trkpt>
      <trkpt lat="44.39215" lon="4.15427">
        <ele>267</ele>
        <time>2019-02-08T13:26:20Z</time>
      </trkpt>
      <trkpt lat="44.39215" lon="4.15431">
        <ele>267</ele>
        <time>2019-02-08T13:26:24Z</time>
      </trkpt>
      <trkpt lat="44.39217" lon="4.15436">
        <ele>266</ele>
        <time>2019-02-08T13:26:28Z</time>
      </trkpt>
      <trkpt lat="44.3922" lon="4.15439">
        <ele>266</ele>
        <time>2019-02-08T13:26:32Z</time>
      </trkpt>
      <trkpt lat="44.39223" lon="4.15447">
        <ele>266</ele>
        <time>2019-02-08T13:26:40Z</time>
      </trkpt>
      <trkpt lat="44.39225" lon="4.15451">
        <ele>266</ele>
        <time>2019-02-08T13:26:45Z</time>
      </trkpt>
      <trkpt lat="44.39226" lon="4.15455">
        <ele>265</ele>
        <time>2019-02-08T13:26:50Z</time>
      </trkpt>
      <trkpt lat="44.39228" lon="4.15459">
        <ele>266</ele>
        <time>2019-02-08T13:26:54Z</time>
      </trkpt>
      <trkpt lat="44.39231" lon="4.15459">
        <ele>266</ele>
        <time>2019-02-08T13:26:58Z</time>
      </trkpt>
      <trkpt lat="44.39234" lon="4.1546">
        <ele>266</ele>
        <time>2019-02-08T13:27:02Z</time>
      </trkpt>
      <trkpt lat="44.39236" lon="4.15462">
        <ele>266</ele>
        <time>2019-02-08T13:27:08Z</time>
      </trkpt>
      <trkpt lat="44.3924" lon="4.15463">
        <ele>266</ele>
        <time>2019-02-08T13:27:13Z</time>
      </trkpt>
      <trkpt lat="44.39241" lon="4.15467">
        <ele>266</ele>
        <time>2019-02-08T13:27:27Z</time>
      </trkpt>
      <trkpt lat="44.39241" lon="4.15471">
        <ele>265</ele>
        <time>2019-02-08T13:27:31Z</time>
      </trkpt>
      <trkpt lat="44.39248" lon="4.15478">
        <ele>264</ele>
        <time>2019-02-08T13:27:46Z</time>
      </trkpt>
      <trkpt lat="44.39251" lon="4.15476">
        <ele>264</ele>
        <time>2019-02-08T13:27:52Z</time>
      </trkpt>
      <trkpt lat="44.39252" lon="4.15472">
        <ele>263</ele>
        <time>2019-02-08T13:27:57Z</time>
      </trkpt>
      <trkpt lat="44.39254" lon="4.1547">
        <ele>263</ele>
        <time>2019-02-08T13:28:02Z</time>
      </trkpt>
      <trkpt lat="44.39257" lon="4.15473">
        <ele>262</ele>
        <time>2019-02-08T13:28:07Z</time>
      </trkpt>
      <trkpt lat="44.39261" lon="4.15489">
        <ele>263</ele>
        <time>2019-02-08T13:28:26Z</time>
      </trkpt>
      <trkpt lat="44.39264" lon="4.15498">
        <ele>263</ele>
        <time>2019-02-08T13:28:35Z</time>
      </trkpt>
      <trkpt lat="44.39264" lon="4.15502">
        <ele>262</ele>
        <time>2019-02-08T13:28:39Z</time>
      </trkpt>
      <trkpt lat="44.39266" lon="4.15506">
        <ele>262</ele>
        <time>2019-02-08T13:28:43Z</time>
      </trkpt>
      <trkpt lat="44.39269" lon="4.15514">
        <ele>262</ele>
        <time>2019-02-08T13:28:53Z</time>
      </trkpt>
      <trkpt lat="44.3927" lon="4.15518">
        <ele>262</ele>
        <time>2019-02-08T13:28:57Z</time>
      </trkpt>
      <trkpt lat="44.39271" lon="4.15522">
        <ele>262</ele>
        <time>2019-02-08T13:29:02Z</time>
      </trkpt>
      <trkpt lat="44.39272" lon="4.15526">
        <ele>260</ele>
        <time>2019-02-08T13:29:10Z</time>
      </trkpt>
      <trkpt lat="44.39272" lon="4.15531">
        <ele>260</ele>
        <time>2019-02-08T13:29:15Z</time>
      </trkpt>
      <trkpt lat="44.39273" lon="4.15535">
        <ele>260</ele>
        <time>2019-02-08T13:29:20Z</time>
      </trkpt>
      <trkpt lat="44.39274" lon="4.15539">
        <ele>260</ele>
        <time>2019-02-08T13:29:24Z</time>
      </trkpt>
      <trkpt lat="44.39276" lon="4.15542">
        <ele>261</ele>
        <time>2019-02-08T13:29:34Z</time>
      </trkpt>
      <trkpt lat="44.39278" lon="4.1555">
        <ele>260</ele>
        <time>2019-02-08T13:29:45Z</time>
      </trkpt>
      <trkpt lat="44.39278" lon="4.15554">
        <ele>260</ele>
        <time>2019-02-08T13:29:52Z</time>
      </trkpt>
      <trkpt lat="44.39282" lon="4.15561">
        <ele>260</ele>
        <time>2019-02-08T13:30:01Z</time>
      </trkpt>
      <trkpt lat="44.39283" lon="4.15565">
        <ele>260</ele>
        <time>2019-02-08T13:30:05Z</time>
      </trkpt>
      <trkpt lat="44.39288" lon="4.15576">
        <ele>259</ele>
        <time>2019-02-08T13:30:19Z</time>
      </trkpt>
      <trkpt lat="44.39287" lon="4.1558">
        <ele>259</ele>
        <time>2019-02-08T13:30:24Z</time>
      </trkpt>
      <trkpt lat="44.39288" lon="4.15583">
        <ele>259</ele>
        <time>2019-02-08T13:30:29Z</time>
      </trkpt>
      <trkpt lat="44.39293" lon="4.15595">
        <ele>259</ele>
        <time>2019-02-08T13:30:41Z</time>
      </trkpt>
      <trkpt lat="44.39295" lon="4.15598">
        <ele>259</ele>
        <time>2019-02-08T13:30:46Z</time>
      </trkpt>
      <trkpt lat="44.39297" lon="4.15601">
        <ele>259</ele>
        <time>2019-02-08T13:30:50Z</time>
      </trkpt>
      <trkpt lat="44.39295" lon="4.15605">
        <ele>259</ele>
        <time>2019-02-08T13:30:54Z</time>
      </trkpt>
      <trkpt lat="44.39295" lon="4.15609">
        <ele>259</ele>
        <time>2019-02-08T13:30:58Z</time>
      </trkpt>
      <trkpt lat="44.39296" lon="4.15614">
        <ele>259</ele>
        <time>2019-02-08T13:31:02Z</time>
      </trkpt>
      <trkpt lat="44.39299" lon="4.15626">
        <ele>259</ele>
        <time>2019-02-08T13:31:14Z</time>
      </trkpt>
      <trkpt lat="44.39301" lon="4.1563">
        <ele>259</ele>
        <time>2019-02-08T13:31:18Z</time>
      </trkpt>
      <trkpt lat="44.39304" lon="4.15629">
        <ele>259</ele>
        <time>2019-02-08T13:31:51Z</time>
      </trkpt>
      <trkpt lat="44.39306" lon="4.15627">
        <ele>258</ele>
        <time>2019-02-08T13:31:54Z</time>
      </trkpt>
      <trkpt lat="44.39327" lon="4.15617">
        <ele>258</ele>
        <time>2019-02-08T13:32:25Z</time>
      </trkpt>
      <trkpt lat="44.39351" lon="4.15607">
        <ele>257</ele>
        <time>2019-02-08T13:32:57Z</time>
      </trkpt>
      <trkpt lat="44.39357" lon="4.15604">
        <ele>257</ele>
        <time>2019-02-08T13:33:05Z</time>
      </trkpt>
      <trkpt lat="44.3936" lon="4.15605">
        <ele>257</ele>
        <time>2019-02-08T13:33:10Z</time>
      </trkpt>
      <trkpt lat="44.39362" lon="4.15607">
        <ele>256</ele>
        <time>2019-02-08T13:33:15Z</time>
      </trkpt>
      <trkpt lat="44.39367" lon="4.15602">
        <ele>255</ele>
        <time>2019-02-08T13:33:24Z</time>
      </trkpt>
      <trkpt lat="44.39378" lon="4.15594">
        <ele>254</ele>
        <time>2019-02-08T13:33:40Z</time>
      </trkpt>
      <trkpt lat="44.39382" lon="4.15594">
        <ele>254</ele>
        <time>2019-02-08T13:33:44Z</time>
      </trkpt>
      <trkpt lat="44.39388" lon="4.15592">
        <ele>253</ele>
        <time>2019-02-08T13:33:53Z</time>
      </trkpt>
      <trkpt lat="44.39392" lon="4.15591">
        <ele>253</ele>
        <time>2019-02-08T13:33:58Z</time>
      </trkpt>
      <trkpt lat="44.39394" lon="4.15587">
        <ele>252</ele>
        <time>2019-02-08T13:34:03Z</time>
      </trkpt>
      <trkpt lat="44.39405" lon="4.15583">
        <ele>252</ele>
        <time>2019-02-08T13:34:16Z</time>
      </trkpt>
      <trkpt lat="44.39414" lon="4.15579">
        <ele>251</ele>
        <time>2019-02-08T13:34:24Z</time>
      </trkpt>
      <trkpt lat="44.39437" lon="4.15577">
        <ele>249</ele>
        <time>2019-02-08T13:34:47Z</time>
      </trkpt>
      <trkpt lat="44.39459" lon="4.1558">
        <ele>249</ele>
        <time>2019-02-08T13:35:13Z</time>
      </trkpt>
      <trkpt lat="44.39481" lon="4.15588">
        <ele>251</ele>
        <time>2019-02-08T13:35:38Z</time>
      </trkpt>
      <trkpt lat="44.39483" lon="4.1559">
        <ele>251</ele>
        <time>2019-02-08T13:35:41Z</time>
      </trkpt>
      <trkpt lat="44.39507" lon="4.15603">
        <ele>251</ele>
        <time>2019-02-08T13:36:09Z</time>
      </trkpt>
      <trkpt lat="44.3951" lon="4.15605">
        <ele>251</ele>
        <time>2019-02-08T13:36:12Z</time>
      </trkpt>
      <trkpt lat="44.39519" lon="4.1561">
        <ele>252</ele>
        <time>2019-02-08T13:36:23Z</time>
      </trkpt>
      <trkpt lat="44.39522" lon="4.15612">
        <ele>252</ele>
        <time>2019-02-08T13:36:27Z</time>
      </trkpt>
      <trkpt lat="44.39531" lon="4.15619">
        <ele>252</ele>
        <time>2019-02-08T13:36:40Z</time>
      </trkpt>
      <trkpt lat="44.39536" lon="4.15623">
        <ele>253</ele>
        <time>2019-02-08T13:36:48Z</time>
      </trkpt>
      <trkpt lat="44.39545" lon="4.15629">
        <ele>252</ele>
        <time>2019-02-08T13:36:59Z</time>
      </trkpt>
      <trkpt lat="44.39554" lon="4.15636">
        <ele>253</ele>
        <time>2019-02-08T13:37:11Z</time>
      </trkpt>
      <trkpt lat="44.39557" lon="4.15637">
        <ele>253</ele>
        <time>2019-02-08T13:37:15Z</time>
      </trkpt>
      <trkpt lat="44.39559" lon="4.15639">
        <ele>253</ele>
        <time>2019-02-08T13:37:19Z</time>
      </trkpt>
      <trkpt lat="44.39566" lon="4.15643">
        <ele>253</ele>
        <time>2019-02-08T13:37:27Z</time>
      </trkpt>
      <trkpt lat="44.39582" lon="4.15656">
        <ele>256</ele>
        <time>2019-02-08T13:37:51Z</time>
      </trkpt>
      <trkpt lat="44.39584" lon="4.15659">
        <ele>256</ele>
        <time>2019-02-08T13:37:54Z</time>
      </trkpt>
      <trkpt lat="44.39584" lon="4.15663">
        <ele>257</ele>
        <time>2019-02-08T13:37:57Z</time>
      </trkpt>
      <trkpt lat="44.39578" lon="4.15672">
        <ele>256</ele>
        <time>2019-02-08T13:38:06Z</time>
      </trkpt>
      <trkpt lat="44.39577" lon="4.15675">
        <ele>256</ele>
        <time>2019-02-08T13:38:09Z</time>
      </trkpt>
      <trkpt lat="44.39567" lon="4.157">
        <ele>254</ele>
        <time>2019-02-08T13:38:33Z</time>
      </trkpt>
      <trkpt lat="44.39565" lon="4.15703">
        <ele>253</ele>
        <time>2019-02-08T13:38:36Z</time>
      </trkpt>
      <trkpt lat="44.39558" lon="4.15716">
        <ele>252</ele>
        <time>2019-02-08T13:38:48Z</time>
      </trkpt>
      <trkpt lat="44.39556" lon="4.15719">
        <ele>252</ele>
        <time>2019-02-08T13:38:51Z</time>
      </trkpt>
      <trkpt lat="44.3955" lon="4.1573">
        <ele>253</ele>
        <time>2019-02-08T13:39:02Z</time>
      </trkpt>
      <trkpt lat="44.39544" lon="4.15738">
        <ele>253</ele>
        <time>2019-02-08T13:39:09Z</time>
      </trkpt>
      <trkpt lat="44.39542" lon="4.15741">
        <ele>253</ele>
        <time>2019-02-08T13:39:12Z</time>
      </trkpt>
      <trkpt lat="44.39538" lon="4.15748">
        <ele>252</ele>
        <time>2019-02-08T13:39:20Z</time>
      </trkpt>
      <trkpt lat="44.39531" lon="4.15756">
        <ele>251</ele>
        <time>2019-02-08T13:39:30Z</time>
      </trkpt>
      <trkpt lat="44.39522" lon="4.15769">
        <ele>250</ele>
        <time>2019-02-08T13:39:43Z</time>
      </trkpt>
      <trkpt lat="44.39518" lon="4.15775">
        <ele>250</ele>
        <time>2019-02-08T13:39:49Z</time>
      </trkpt>
      <trkpt lat="44.39516" lon="4.15778">
        <ele>250</ele>
        <time>2019-02-08T13:39:52Z</time>
      </trkpt>
      <trkpt lat="44.39514" lon="4.15781">
        <ele>249</ele>
        <time>2019-02-08T13:39:55Z</time>
      </trkpt>
      <trkpt lat="44.39512" lon="4.15785">
        <ele>249</ele>
        <time>2019-02-08T13:39:59Z</time>
      </trkpt>
      <trkpt lat="44.39506" lon="4.15805">
        <ele>248</ele>
        <time>2019-02-08T13:40:15Z</time>
      </trkpt>
      <trkpt lat="44.39505" lon="4.15809">
        <ele>248</ele>
        <time>2019-02-08T13:40:19Z</time>
      </trkpt>
      <trkpt lat="44.39501" lon="4.15831">
        <ele>245</ele>
        <time>2019-02-08T13:40:40Z</time>
      </trkpt>
      <trkpt lat="44.395" lon="4.15836">
        <ele>245</ele>
        <time>2019-02-08T13:40:44Z</time>
      </trkpt>
      <trkpt lat="44.39498" lon="4.15844">
        <ele>244</ele>
        <time>2019-02-08T13:40:52Z</time>
      </trkpt>
      <trkpt lat="44.39497" lon="4.15857">
        <ele>242</ele>
        <time>2019-02-08T13:41:01Z</time>
      </trkpt>
      <trkpt lat="44.39498" lon="4.15862">
        <ele>242</ele>
        <time>2019-02-08T13:41:04Z</time>
      </trkpt>
      <trkpt lat="44.39498" lon="4.15878">
        <ele>242</ele>
        <time>2019-02-08T13:41:16Z</time>
      </trkpt>
      <trkpt lat="44.39485" lon="4.15917">
        <ele>241</ele>
        <time>2019-02-08T13:41:48Z</time>
      </trkpt>
      <trkpt lat="44.39478" lon="4.15931">
        <ele>240</ele>
        <time>2019-02-08T13:42:01Z</time>
      </trkpt>
      <trkpt lat="44.3947" lon="4.15944">
        <ele>241</ele>
        <time>2019-02-08T13:42:17Z</time>
      </trkpt>
      <trkpt lat="44.39451" lon="4.15972">
        <ele>243</ele>
        <time>2019-02-08T13:42:50Z</time>
      </trkpt>
      <trkpt lat="44.39445" lon="4.15987">
        <ele>244</ele>
        <time>2019-02-08T13:43:06Z</time>
      </trkpt>
      <trkpt lat="44.39445" lon="4.15991">
        <ele>244</ele>
        <time>2019-02-08T13:43:14Z</time>
      </trkpt>
      <trkpt lat="44.39445" lon="4.1599">
        <ele>245</ele>
        <time>2019-02-08T13:43:32Z</time>
      </trkpt>
      <trkpt lat="44.39445" lon="4.15986">
        <ele>246</ele>
        <time>2019-02-08T13:43:36Z</time>
      </trkpt>
      <trkpt lat="44.39446" lon="4.15982">
        <ele>247</ele>
        <time>2019-02-08T13:43:41Z</time>
      </trkpt>
      <trkpt lat="44.39446" lon="4.15985">
        <ele>247</ele>
        <time>2019-02-08T13:44:33Z</time>
      </trkpt>
      <trkpt lat="44.39443" lon="4.15985">
        <ele>247</ele>
        <time>2019-02-08T13:45:09Z</time>
      </trkpt>
      <trkpt lat="44.39444" lon="4.15988">
        <ele>247</ele>
        <time>2019-02-08T13:45:36Z</time>
      </trkpt>
      <trkpt lat="44.39447" lon="4.15995">
        <ele>246</ele>
        <time>2019-02-08T13:45:44Z</time>
      </trkpt>
      <trkpt lat="44.39448" lon="4.15999">
        <ele>246</ele>
        <time>2019-02-08T13:45:48Z</time>
      </trkpt>
      <trkpt lat="44.39448" lon="4.16008">
        <ele>245</ele>
        <time>2019-02-08T13:45:56Z</time>
      </trkpt>
      <trkpt lat="44.39444" lon="4.16039">
        <ele>247</ele>
        <time>2019-02-08T13:46:26Z</time>
      </trkpt>
      <trkpt lat="44.39443" lon="4.16044">
        <ele>247</ele>
        <time>2019-02-08T13:46:30Z</time>
      </trkpt>
      <trkpt lat="44.39444" lon="4.1606">
        <ele>248</ele>
        <time>2019-02-08T13:47:00Z</time>
      </trkpt>
      <trkpt lat="44.39443" lon="4.16085">
        <ele>249</ele>
        <time>2019-02-08T13:47:26Z</time>
      </trkpt>
      <trkpt lat="44.39442" lon="4.16089">
        <ele>248</ele>
        <time>2019-02-08T13:47:30Z</time>
      </trkpt>
      <trkpt lat="44.39442" lon="4.16093">
        <ele>248</ele>
        <time>2019-02-08T13:47:34Z</time>
      </trkpt>
      <trkpt lat="44.39441" lon="4.16097">
        <ele>248</ele>
        <time>2019-02-08T13:47:38Z</time>
      </trkpt>
      <trkpt lat="44.39438" lon="4.16105">
        <ele>248</ele>
        <time>2019-02-08T13:47:46Z</time>
      </trkpt>
      <trkpt lat="44.3943" lon="4.1613">
        <ele>248</ele>
        <time>2019-02-08T13:48:10Z</time>
      </trkpt>
      <trkpt lat="44.39427" lon="4.16138">
        <ele>248</ele>
        <time>2019-02-08T13:48:18Z</time>
      </trkpt>
      <trkpt lat="44.39426" lon="4.16143">
        <ele>247</ele>
        <time>2019-02-08T13:48:22Z</time>
      </trkpt>
      <trkpt lat="44.39426" lon="4.16147">
        <ele>247</ele>
        <time>2019-02-08T13:48:34Z</time>
      </trkpt>
      <trkpt lat="44.39423" lon="4.16149">
        <ele>247</ele>
        <time>2019-02-08T13:48:59Z</time>
      </trkpt>
      <trkpt lat="44.39412" lon="4.16169">
        <ele>247</ele>
        <time>2019-02-08T13:49:24Z</time>
      </trkpt>
      <trkpt lat="44.3941" lon="4.16172">
        <ele>247</ele>
        <time>2019-02-08T13:49:28Z</time>
      </trkpt>
      <trkpt lat="44.39405" lon="4.16177">
        <ele>248</ele>
        <time>2019-02-08T13:49:37Z</time>
      </trkpt>
      <trkpt lat="44.39401" lon="4.16184">
        <ele>247</ele>
        <time>2019-02-08T13:49:44Z</time>
      </trkpt>
      <trkpt lat="44.39399" lon="4.16187">
        <ele>247</ele>
        <time>2019-02-08T13:49:47Z</time>
      </trkpt>
      <trkpt lat="44.39385" lon="4.16221">
        <ele>247</ele>
        <time>2019-02-08T13:50:18Z</time>
      </trkpt>
      <trkpt lat="44.39384" lon="4.16225">
        <ele>247</ele>
        <time>2019-02-08T13:50:21Z</time>
      </trkpt>
      <trkpt lat="44.39383" lon="4.16229">
        <ele>247</ele>
        <time>2019-02-08T13:50:24Z</time>
      </trkpt>
      <trkpt lat="44.3938" lon="4.16241">
        <ele>248</ele>
        <time>2019-02-08T13:50:33Z</time>
      </trkpt>
      <trkpt lat="44.39379" lon="4.16249">
        <ele>249</ele>
        <time>2019-02-08T13:50:39Z</time>
      </trkpt>
      <trkpt lat="44.39371" lon="4.16277">
        <ele>248</ele>
        <time>2019-02-08T13:51:02Z</time>
      </trkpt>
      <trkpt lat="44.39369" lon="4.1628">
        <ele>248</ele>
        <time>2019-02-08T13:51:06Z</time>
      </trkpt>
      <trkpt lat="44.39366" lon="4.16282">
        <ele>248</ele>
        <time>2019-02-08T13:51:10Z</time>
      </trkpt>
      <trkpt lat="44.39364" lon="4.16284">
        <ele>249</ele>
        <time>2019-02-08T13:51:14Z</time>
      </trkpt>
      <trkpt lat="44.39358" lon="4.16288">
        <ele>250</ele>
        <time>2019-02-08T13:51:22Z</time>
      </trkpt>
      <trkpt lat="44.39355" lon="4.16291">
        <ele>250</ele>
        <time>2019-02-08T13:51:26Z</time>
      </trkpt>
      <trkpt lat="44.39352" lon="4.16294">
        <ele>250</ele>
        <time>2019-02-08T13:51:30Z</time>
      </trkpt>
      <trkpt lat="44.39347" lon="4.16296">
        <ele>250</ele>
        <time>2019-02-08T13:51:39Z</time>
      </trkpt>
      <trkpt lat="44.39345" lon="4.163">
        <ele>250</ele>
        <time>2019-02-08T13:51:43Z</time>
      </trkpt>
      <trkpt lat="44.39346" lon="4.16304">
        <ele>250</ele>
        <time>2019-02-08T13:51:46Z</time>
      </trkpt>
      <trkpt lat="44.39346" lon="4.16309">
        <ele>250</ele>
        <time>2019-02-08T13:51:50Z</time>
      </trkpt>
      <trkpt lat="44.39349" lon="4.16311">
        <ele>249</ele>
        <time>2019-02-08T13:53:40Z</time>
      </trkpt>
      <trkpt lat="44.39352" lon="4.16313">
        <ele>249</ele>
        <time>2019-02-08T13:53:43Z</time>
      </trkpt>
      <trkpt lat="44.39355" lon="4.16313">
        <ele>250</ele>
        <time>2019-02-08T13:53:46Z</time>
      </trkpt>
      <trkpt lat="44.39361" lon="4.16315">
        <ele>250</ele>
        <time>2019-02-08T13:53:52Z</time>
      </trkpt>
      <trkpt lat="44.39365" lon="4.16317">
        <ele>250</ele>
        <time>2019-02-08T13:53:55Z</time>
      </trkpt>
      <trkpt lat="44.39368" lon="4.16318">
        <ele>250</ele>
        <time>2019-02-08T13:53:58Z</time>
      </trkpt>
      <trkpt lat="44.39371" lon="4.16317">
        <ele>251</ele>
        <time>2019-02-08T13:54:03Z</time>
      </trkpt>
      <trkpt lat="44.39373" lon="4.16314">
        <ele>251</ele>
        <time>2019-02-08T13:54:07Z</time>
      </trkpt>
      <trkpt lat="44.39379" lon="4.16318">
        <ele>251</ele>
        <time>2019-02-08T13:54:15Z</time>
      </trkpt>
      <trkpt lat="44.39378" lon="4.16322">
        <ele>251</ele>
        <time>2019-02-08T13:54:19Z</time>
      </trkpt>
      <trkpt lat="44.39381" lon="4.16321">
        <ele>250</ele>
        <time>2019-02-08T13:54:25Z</time>
      </trkpt>
      <trkpt lat="44.39383" lon="4.16324">
        <ele>250</ele>
        <time>2019-02-08T13:54:35Z</time>
      </trkpt>
      <trkpt lat="44.39384" lon="4.16343">
        <ele>249</ele>
        <time>2019-02-08T13:55:07Z</time>
      </trkpt>
      <trkpt lat="44.39386" lon="4.16348">
        <ele>249</ele>
        <time>2019-02-08T13:55:11Z</time>
      </trkpt>
      <trkpt lat="44.39389" lon="4.1637">
        <ele>247</ele>
        <time>2019-02-08T13:55:32Z</time>
      </trkpt>
      <trkpt lat="44.39391" lon="4.16387">
        <ele>248</ele>
        <time>2019-02-08T13:55:44Z</time>
      </trkpt>
      <trkpt lat="44.39391" lon="4.16391">
        <ele>248</ele>
        <time>2019-02-08T13:55:49Z</time>
      </trkpt>
      <trkpt lat="44.39391" lon="4.16395">
        <ele>249</ele>
        <time>2019-02-08T13:56:08Z</time>
      </trkpt>
      <trkpt lat="44.39391" lon="4.16399">
        <ele>249</ele>
        <time>2019-02-08T13:56:12Z</time>
      </trkpt>
      <trkpt lat="44.39391" lon="4.16404">
        <ele>249</ele>
        <time>2019-02-08T13:56:16Z</time>
      </trkpt>
      <trkpt lat="44.39391" lon="4.16408">
        <ele>249</ele>
        <time>2019-02-08T13:56:20Z</time>
      </trkpt>
      <trkpt lat="44.39397" lon="4.16412">
        <ele>249</ele>
        <time>2019-02-08T13:56:27Z</time>
      </trkpt>
      <trkpt lat="44.394" lon="4.16414">
        <ele>249</ele>
        <time>2019-02-08T13:56:30Z</time>
      </trkpt>
      <trkpt lat="44.39424" lon="4.16423">
        <ele>249</ele>
        <time>2019-02-08T13:57:00Z</time>
      </trkpt>
      <trkpt lat="44.39431" lon="4.16425">
        <ele>249</ele>
        <time>2019-02-08T13:57:10Z</time>
      </trkpt>
      <trkpt lat="44.39433" lon="4.16426">
        <ele>249</ele>
        <time>2019-02-08T13:57:16Z</time>
      </trkpt>
      <trkpt lat="44.39437" lon="4.16427">
        <ele>249</ele>
        <time>2019-02-08T13:57:29Z</time>
      </trkpt>
      <trkpt lat="44.3944" lon="4.16428">
        <ele>249</ele>
        <time>2019-02-08T13:57:33Z</time>
      </trkpt>
      <trkpt lat="44.39446" lon="4.16428">
        <ele>249</ele>
        <time>2019-02-08T13:57:44Z</time>
      </trkpt>
      <trkpt lat="44.39449" lon="4.16428">
        <ele>248</ele>
        <time>2019-02-08T13:57:48Z</time>
      </trkpt>
      <trkpt lat="44.39449" lon="4.16423">
        <ele>248</ele>
        <time>2019-02-08T13:58:02Z</time>
      </trkpt>
      <trkpt lat="44.39446" lon="4.1642">
        <ele>248</ele>
        <time>2019-02-08T13:58:08Z</time>
      </trkpt>
      <trkpt lat="44.39444" lon="4.16419">
        <ele>247</ele>
        <time>2019-02-08T13:58:13Z</time>
      </trkpt>
      <trkpt lat="44.39445" lon="4.16415">
        <ele>246</ele>
        <time>2019-02-08T13:58:18Z</time>
      </trkpt>
      <trkpt lat="44.39444" lon="4.16411">
        <ele>246</ele>
        <time>2019-02-08T13:58:22Z</time>
      </trkpt>
      <trkpt lat="44.39442" lon="4.16408">
        <ele>246</ele>
        <time>2019-02-08T13:58:26Z</time>
      </trkpt>
      <trkpt lat="44.39439" lon="4.16405">
        <ele>247</ele>
        <time>2019-02-08T13:58:30Z</time>
      </trkpt>
      <trkpt lat="44.39439" lon="4.16401">
        <ele>247</ele>
        <time>2019-02-08T13:58:36Z</time>
      </trkpt>
      <trkpt lat="44.39441" lon="4.16394">
        <ele>248</ele>
        <time>2019-02-08T13:58:45Z</time>
      </trkpt>
      <trkpt lat="44.39444" lon="4.16396">
        <ele>247</ele>
        <time>2019-02-08T13:58:49Z</time>
      </trkpt>
      <trkpt lat="44.39449" lon="4.16393">
        <ele>246</ele>
        <time>2019-02-08T13:59:02Z</time>
      </trkpt>
      <trkpt lat="44.39453" lon="4.16394">
        <ele>246</ele>
        <time>2019-02-08T13:59:07Z</time>
      </trkpt>
      <trkpt lat="44.39456" lon="4.16392">
        <ele>246</ele>
        <time>2019-02-08T13:59:13Z</time>
      </trkpt>
      <trkpt lat="44.39457" lon="4.16389">
        <ele>245</ele>
        <time>2019-02-08T13:59:22Z</time>
      </trkpt>
      <trkpt lat="44.39457" lon="4.16385">
        <ele>245</ele>
        <time>2019-02-08T13:59:31Z</time>
      </trkpt>
      <trkpt lat="44.39456" lon="4.16381">
        <ele>245</ele>
        <time>2019-02-08T13:59:35Z</time>
      </trkpt>
      <trkpt lat="44.39461" lon="4.16384">
        <ele>246</ele>
        <time>2019-02-08T14:01:47Z</time>
      </trkpt>
      <trkpt lat="44.39458" lon="4.16386">
        <ele>246</ele>
        <time>2019-02-08T14:02:58Z</time>
      </trkpt>
      <trkpt lat="44.39456" lon="4.16389">
        <ele>246</ele>
        <time>2019-02-08T14:03:40Z</time>
      </trkpt>
      <trkpt lat="44.39454" lon="4.16391">
        <ele>246</ele>
        <time>2019-02-08T14:03:50Z</time>
      </trkpt>
      <trkpt lat="44.39452" lon="4.16393">
        <ele>243</ele>
        <time>2019-02-08T14:03:55Z</time>
      </trkpt>
      <trkpt lat="44.39449" lon="4.16394">
        <ele>244</ele>
        <time>2019-02-08T14:04:01Z</time>
      </trkpt>
      <trkpt lat="44.39446" lon="4.16395">
        <ele>245</ele>
        <time>2019-02-08T14:04:07Z</time>
      </trkpt>
      <trkpt lat="44.39444" lon="4.16397">
        <ele>245</ele>
        <time>2019-02-08T14:04:13Z</time>
      </trkpt>
      <trkpt lat="44.39441" lon="4.16397">
        <ele>245</ele>
        <time>2019-02-08T14:04:18Z</time>
      </trkpt>
      <trkpt lat="44.39438" lon="4.16399">
        <ele>245</ele>
        <time>2019-02-08T14:04:24Z</time>
      </trkpt>
      <trkpt lat="44.39439" lon="4.16407">
        <ele>245</ele>
        <time>2019-02-08T14:04:35Z</time>
      </trkpt>
      <trkpt lat="44.39441" lon="4.1641">
        <ele>244</ele>
        <time>2019-02-08T14:04:42Z</time>
      </trkpt>
      <trkpt lat="44.39444" lon="4.16417">
        <ele>244</ele>
        <time>2019-02-08T14:04:51Z</time>
      </trkpt>
      <trkpt lat="44.39444" lon="4.16422">
        <ele>244</ele>
        <time>2019-02-08T14:05:05Z</time>
      </trkpt>
      <trkpt lat="44.39446" lon="4.16425">
        <ele>243</ele>
        <time>2019-02-08T14:05:18Z</time>
      </trkpt>
      <trkpt lat="44.39454" lon="4.1643">
        <ele>242</ele>
        <time>2019-02-08T14:05:46Z</time>
      </trkpt>
      <trkpt lat="44.39464" lon="4.16433">
        <ele>243</ele>
        <time>2019-02-08T14:05:55Z</time>
      </trkpt>
      <trkpt lat="44.3947" lon="4.16433">
        <ele>242</ele>
        <time>2019-02-08T14:06:03Z</time>
      </trkpt>
      <trkpt lat="44.39472" lon="4.16434">
        <ele>242</ele>
        <time>2019-02-08T14:06:07Z</time>
      </trkpt>
      <trkpt lat="44.39476" lon="4.16435">
        <ele>242</ele>
        <time>2019-02-08T14:06:11Z</time>
      </trkpt>
      <trkpt lat="44.39479" lon="4.16435">
        <ele>243</ele>
        <time>2019-02-08T14:06:14Z</time>
      </trkpt>
      <trkpt lat="44.39489" lon="4.16435">
        <ele>242</ele>
        <time>2019-02-08T14:06:28Z</time>
      </trkpt>
      <trkpt lat="44.39495" lon="4.16434">
        <ele>241</ele>
        <time>2019-02-08T14:06:36Z</time>
      </trkpt>
      <trkpt lat="44.39514" lon="4.16439">
        <ele>238</ele>
        <time>2019-02-08T14:07:18Z</time>
      </trkpt>
      <trkpt lat="44.3952" lon="4.1644">
        <ele>238</ele>
        <time>2019-02-08T14:07:25Z</time>
      </trkpt>
      <trkpt lat="44.39523" lon="4.16441">
        <ele>235</ele>
        <time>2019-02-08T14:08:18Z</time>
      </trkpt>
      <trkpt lat="44.39532" lon="4.1644">
        <ele>233</ele>
        <time>2019-02-08T14:08:38Z</time>
      </trkpt>
      <trkpt lat="44.39541" lon="4.16443">
        <ele>233</ele>
        <time>2019-02-08T14:08:52Z</time>
      </trkpt>
      <trkpt lat="44.39544" lon="4.16444">
        <ele>233</ele>
        <time>2019-02-08T14:08:56Z</time>
      </trkpt>
      <trkpt lat="44.39553" lon="4.16446">
        <ele>232</ele>
        <time>2019-02-08T14:09:08Z</time>
      </trkpt>
      <trkpt lat="44.39556" lon="4.16446">
        <ele>231</ele>
        <time>2019-02-08T14:09:12Z</time>
      </trkpt>
      <trkpt lat="44.39562" lon="4.16447">
        <ele>231</ele>
        <time>2019-02-08T14:09:20Z</time>
      </trkpt>
      <trkpt lat="44.39565" lon="4.16447">
        <ele>231</ele>
        <time>2019-02-08T14:09:24Z</time>
      </trkpt>
      <trkpt lat="44.39568" lon="4.16447">
        <ele>231</ele>
        <time>2019-02-08T14:09:30Z</time>
      </trkpt>
      <trkpt lat="44.39571" lon="4.16446">
        <ele>231</ele>
        <time>2019-02-08T14:09:35Z</time>
      </trkpt>
      <trkpt lat="44.39575" lon="4.16446">
        <ele>231</ele>
        <time>2019-02-08T14:09:39Z</time>
      </trkpt>
      <trkpt lat="44.39577" lon="4.16447">
        <ele>231</ele>
        <time>2019-02-08T14:09:43Z</time>
      </trkpt>
      <trkpt lat="44.3958" lon="4.16447">
        <ele>231</ele>
        <time>2019-02-08T14:09:47Z</time>
      </trkpt>
      <trkpt lat="44.39583" lon="4.16446">
        <ele>231</ele>
        <time>2019-02-08T14:09:51Z</time>
      </trkpt>
      <trkpt lat="44.39587" lon="4.16444">
        <ele>231</ele>
        <time>2019-02-08T14:09:55Z</time>
      </trkpt>
      <trkpt lat="44.3959" lon="4.16443">
        <ele>231</ele>
        <time>2019-02-08T14:10:00Z</time>
      </trkpt>
      <trkpt lat="44.39593" lon="4.16442">
        <ele>231</ele>
        <time>2019-02-08T14:10:04Z</time>
      </trkpt>
      <trkpt lat="44.39596" lon="4.16442">
        <ele>231</ele>
        <time>2019-02-08T14:10:08Z</time>
      </trkpt>
      <trkpt lat="44.39599" lon="4.16443">
        <ele>230</ele>
        <time>2019-02-08T14:10:13Z</time>
      </trkpt>
      <trkpt lat="44.39611" lon="4.1644">
        <ele>230</ele>
        <time>2019-02-08T14:10:28Z</time>
      </trkpt>
      <trkpt lat="44.39617" lon="4.16435">
        <ele>231</ele>
        <time>2019-02-08T14:10:37Z</time>
      </trkpt>
      <trkpt lat="44.39619" lon="4.16434">
        <ele>231</ele>
        <time>2019-02-08T14:10:41Z</time>
      </trkpt>
      <trkpt lat="44.39625" lon="4.16431">
        <ele>231</ele>
        <time>2019-02-08T14:10:51Z</time>
      </trkpt>
      <trkpt lat="44.39632" lon="4.16432">
        <ele>231</ele>
        <time>2019-02-08T14:11:02Z</time>
      </trkpt>
      <trkpt lat="44.39635" lon="4.16432">
        <ele>232</ele>
        <time>2019-02-08T14:11:06Z</time>
      </trkpt>
      <trkpt lat="44.39642" lon="4.16434">
        <ele>232</ele>
        <time>2019-02-08T14:11:14Z</time>
      </trkpt>
      <trkpt lat="44.39651" lon="4.16436">
        <ele>233</ele>
        <time>2019-02-08T14:11:27Z</time>
      </trkpt>
      <trkpt lat="44.39654" lon="4.16437">
        <ele>233</ele>
        <time>2019-02-08T14:11:31Z</time>
      </trkpt>
      <trkpt lat="44.39658" lon="4.16437">
        <ele>232</ele>
        <time>2019-02-08T14:11:35Z</time>
      </trkpt>
      <trkpt lat="44.39661" lon="4.16438">
        <ele>233</ele>
        <time>2019-02-08T14:11:38Z</time>
      </trkpt>
      <trkpt lat="44.39666" lon="4.16441">
        <ele>234</ele>
        <time>2019-02-08T14:11:51Z</time>
      </trkpt>
      <trkpt lat="44.39669" lon="4.16442">
        <ele>234</ele>
        <time>2019-02-08T14:11:58Z</time>
      </trkpt>
      <trkpt lat="44.39672" lon="4.16442">
        <ele>233</ele>
        <time>2019-02-08T14:12:21Z</time>
      </trkpt>
      <trkpt lat="44.39678" lon="4.1644">
        <ele>231</ele>
        <time>2019-02-08T14:12:52Z</time>
      </trkpt>
      <trkpt lat="44.39684" lon="4.16437">
        <ele>231</ele>
        <time>2019-02-08T14:12:59Z</time>
      </trkpt>
      <trkpt lat="44.39686" lon="4.16434">
        <ele>231</ele>
        <time>2019-02-08T14:13:03Z</time>
      </trkpt>
      <trkpt lat="44.39689" lon="4.16433">
        <ele>232</ele>
        <time>2019-02-08T14:13:08Z</time>
      </trkpt>
      <trkpt lat="44.39692" lon="4.16431">
        <ele>232</ele>
        <time>2019-02-08T14:13:14Z</time>
      </trkpt>
      <trkpt lat="44.39695" lon="4.1643">
        <ele>233</ele>
        <time>2019-02-08T14:13:20Z</time>
      </trkpt>
      <trkpt lat="44.39701" lon="4.16428">
        <ele>233</ele>
        <time>2019-02-08T14:13:31Z</time>
      </trkpt>
      <trkpt lat="44.39707" lon="4.16425">
        <ele>233</ele>
        <time>2019-02-08T14:13:39Z</time>
      </trkpt>
      <trkpt lat="44.3971" lon="4.16422">
        <ele>233</ele>
        <time>2019-02-08T14:13:43Z</time>
      </trkpt>
      <trkpt lat="44.39711" lon="4.16419">
        <ele>233</ele>
        <time>2019-02-08T14:13:46Z</time>
      </trkpt>
      <trkpt lat="44.39713" lon="4.16415">
        <ele>233</ele>
        <time>2019-02-08T14:13:50Z</time>
      </trkpt>
      <trkpt lat="44.39716" lon="4.164">
        <ele>233</ele>
        <time>2019-02-08T14:14:05Z</time>
      </trkpt>
      <trkpt lat="44.39716" lon="4.16396">
        <ele>233</ele>
        <time>2019-02-08T14:14:09Z</time>
      </trkpt>
      <trkpt lat="44.39719" lon="4.16387">
        <ele>233</ele>
        <time>2019-02-08T14:14:17Z</time>
      </trkpt>
      <trkpt lat="44.39724" lon="4.16382">
        <ele>232</ele>
        <time>2019-02-08T14:14:25Z</time>
      </trkpt>
      <trkpt lat="44.39727" lon="4.1638">
        <ele>232</ele>
        <time>2019-02-08T14:14:29Z</time>
      </trkpt>
      <trkpt lat="44.39739" lon="4.16381">
        <ele>232</ele>
        <time>2019-02-08T14:14:45Z</time>
      </trkpt>
      <trkpt lat="44.39751" lon="4.1639">
        <ele>232</ele>
        <time>2019-02-08T14:15:01Z</time>
      </trkpt>
      <trkpt lat="44.39754" lon="4.16392">
        <ele>232</ele>
        <time>2019-02-08T14:15:04Z</time>
      </trkpt>
      <trkpt lat="44.39757" lon="4.16394">
        <ele>232</ele>
        <time>2019-02-08T14:15:08Z</time>
      </trkpt>
      <trkpt lat="44.39763" lon="4.16396">
        <ele>232</ele>
        <time>2019-02-08T14:15:16Z</time>
      </trkpt>
      <trkpt lat="44.39776" lon="4.16396">
        <ele>233</ele>
        <time>2019-02-08T14:15:32Z</time>
      </trkpt>
      <trkpt lat="44.39801" lon="4.16388">
        <ele>232</ele>
        <time>2019-02-08T14:16:02Z</time>
      </trkpt>
      <trkpt lat="44.39821" lon="4.16381">
        <ele>231</ele>
        <time>2019-02-08T14:16:48Z</time>
      </trkpt>
      <trkpt lat="44.39846" lon="4.16385">
        <ele>232</ele>
        <time>2019-02-08T14:17:18Z</time>
      </trkpt>
      <trkpt lat="44.39873" lon="4.16388">
        <ele>234</ele>
        <time>2019-02-08T14:17:50Z</time>
      </trkpt>
      <trkpt lat="44.39898" lon="4.16391">
        <ele>235</ele>
        <time>2019-02-08T14:18:20Z</time>
      </trkpt>
      <trkpt lat="44.39904" lon="4.16392">
        <ele>236</ele>
        <time>2019-02-08T14:18:26Z</time>
      </trkpt>
      <trkpt lat="44.39916" lon="4.16399">
        <ele>236</ele>
        <time>2019-02-08T14:18:43Z</time>
      </trkpt>
      <trkpt lat="44.39919" lon="4.16401">
        <ele>237</ele>
        <time>2019-02-08T14:18:47Z</time>
      </trkpt>
      <trkpt lat="44.39922" lon="4.16401">
        <ele>237</ele>
        <time>2019-02-08T14:18:51Z</time>
      </trkpt>
      <trkpt lat="44.39927" lon="4.16399">
        <ele>238</ele>
        <time>2019-02-08T14:19:00Z</time>
      </trkpt>
      <trkpt lat="44.3993" lon="4.16398">
        <ele>238</ele>
        <time>2019-02-08T14:19:05Z</time>
      </trkpt>
      <trkpt lat="44.39933" lon="4.16396">
        <ele>237</ele>
        <time>2019-02-08T14:19:22Z</time>
      </trkpt>
      <trkpt lat="44.39936" lon="4.16395">
        <ele>238</ele>
        <time>2019-02-08T14:19:26Z</time>
      </trkpt>
      <trkpt lat="44.39939" lon="4.16393">
        <ele>238</ele>
        <time>2019-02-08T14:19:32Z</time>
      </trkpt>
      <trkpt lat="44.39952" lon="4.16392">
        <ele>237</ele>
        <time>2019-02-08T14:19:50Z</time>
      </trkpt>
      <trkpt lat="44.39965" lon="4.16387">
        <ele>238</ele>
        <time>2019-02-08T14:20:08Z</time>
      </trkpt>
      <trkpt lat="44.39968" lon="4.16386">
        <ele>238</ele>
        <time>2019-02-08T14:20:12Z</time>
      </trkpt>
      <trkpt lat="44.39973" lon="4.16386">
        <ele>238</ele>
        <time>2019-02-08T14:20:21Z</time>
      </trkpt>
      <trkpt lat="44.39986" lon="4.16386">
        <ele>239</ele>
        <time>2019-02-08T14:20:37Z</time>
      </trkpt>
      <trkpt lat="44.39996" lon="4.16387">
        <ele>239</ele>
        <time>2019-02-08T14:20:48Z</time>
      </trkpt>
      <trkpt lat="44.40022" lon="4.16391">
        <ele>240</ele>
        <time>2019-02-08T14:21:17Z</time>
      </trkpt>
      <trkpt lat="44.40041" lon="4.16394">
        <ele>241</ele>
        <time>2019-02-08T14:21:38Z</time>
      </trkpt>
      <trkpt lat="44.40047" lon="4.16394">
        <ele>241</ele>
        <time>2019-02-08T14:21:44Z</time>
      </trkpt>
      <trkpt lat="44.40057" lon="4.16395">
        <ele>241</ele>
        <time>2019-02-08T14:21:55Z</time>
      </trkpt>
      <trkpt lat="44.40062" lon="4.16392">
        <ele>241</ele>
        <time>2019-02-08T14:22:04Z</time>
      </trkpt>
      <trkpt lat="44.40065" lon="4.1639">
        <ele>241</ele>
        <time>2019-02-08T14:22:07Z</time>
      </trkpt>
      <trkpt lat="44.40067" lon="4.16387">
        <ele>241</ele>
        <time>2019-02-08T14:22:11Z</time>
      </trkpt>
      <trkpt lat="44.40071" lon="4.1638">
        <ele>242</ele>
        <time>2019-02-08T14:22:18Z</time>
      </trkpt>
      <trkpt lat="44.40077" lon="4.1637">
        <ele>244</ele>
        <time>2019-02-08T14:22:28Z</time>
      </trkpt>
      <trkpt lat="44.40079" lon="4.16366">
        <ele>245</ele>
        <time>2019-02-08T14:22:32Z</time>
      </trkpt>
      <trkpt lat="44.4008" lon="4.16362">
        <ele>245</ele>
        <time>2019-02-08T14:22:36Z</time>
      </trkpt>
      <trkpt lat="44.40083" lon="4.16363">
        <ele>245</ele>
        <time>2019-02-08T14:24:15Z</time>
      </trkpt>
      <trkpt lat="44.40089" lon="4.1636">
        <ele>246</ele>
        <time>2019-02-08T14:24:25Z</time>
      </trkpt>
      <trkpt lat="44.40092" lon="4.1636">
        <ele>245</ele>
        <time>2019-02-08T14:24:51Z</time>
      </trkpt>
      <trkpt lat="44.40095" lon="4.16358">
        <ele>245</ele>
        <time>2019-02-08T14:24:55Z</time>
      </trkpt>
      <trkpt lat="44.40098" lon="4.16358">
        <ele>243</ele>
        <time>2019-02-08T14:25:11Z</time>
      </trkpt>
      <trkpt lat="44.40101" lon="4.16358">
        <ele>243</ele>
        <time>2019-02-08T14:25:16Z</time>
      </trkpt>
      <trkpt lat="44.40116" lon="4.16354">
        <ele>242</ele>
        <time>2019-02-08T14:25:37Z</time>
      </trkpt>
      <trkpt lat="44.40123" lon="4.16348">
        <ele>243</ele>
        <time>2019-02-08T14:25:49Z</time>
      </trkpt>
      <trkpt lat="44.40124" lon="4.16333">
        <ele>244</ele>
        <time>2019-02-08T14:26:05Z</time>
      </trkpt>
      <trkpt lat="44.40122" lon="4.16308">
        <ele>247</ele>
        <time>2019-02-08T14:26:28Z</time>
      </trkpt>
      <trkpt lat="44.4012" lon="4.163">
        <ele>247</ele>
        <time>2019-02-08T14:26:36Z</time>
      </trkpt>
      <trkpt lat="44.40118" lon="4.1628">
        <ele>248</ele>
        <time>2019-02-08T14:26:56Z</time>
      </trkpt>
      <trkpt lat="44.40117" lon="4.16275">
        <ele>248</ele>
        <time>2019-02-08T14:27:00Z</time>
      </trkpt>
      <trkpt lat="44.40118" lon="4.16266">
        <ele>248</ele>
        <time>2019-02-08T14:27:08Z</time>
      </trkpt>
      <trkpt lat="44.4012" lon="4.16248">
        <ele>248</ele>
        <time>2019-02-08T14:27:23Z</time>
      </trkpt>
      <trkpt lat="44.40123" lon="4.16236">
        <ele>248</ele>
        <time>2019-02-08T14:27:34Z</time>
      </trkpt>
      <trkpt lat="44.40129" lon="4.16201">
        <ele>248</ele>
        <time>2019-02-08T14:28:05Z</time>
      </trkpt>
      <trkpt lat="44.40131" lon="4.16184">
        <ele>249</ele>
        <time>2019-02-08T14:28:21Z</time>
      </trkpt>
      <trkpt lat="44.40134" lon="4.16182">
        <ele>249</ele>
        <time>2019-02-08T14:28:26Z</time>
      </trkpt>
      <trkpt lat="44.40136" lon="4.16174">
        <ele>249</ele>
        <time>2019-02-08T14:28:34Z</time>
      </trkpt>
      <trkpt lat="44.40137" lon="4.16166">
        <ele>248</ele>
        <time>2019-02-08T14:28:43Z</time>
      </trkpt>
      <trkpt lat="44.40144" lon="4.16146">
        <ele>248</ele>
        <time>2019-02-08T14:29:04Z</time>
      </trkpt>
      <trkpt lat="44.40146" lon="4.16143">
        <ele>248</ele>
        <time>2019-02-08T14:29:08Z</time>
      </trkpt>
      <trkpt lat="44.40148" lon="4.16136">
        <ele>247</ele>
        <time>2019-02-08T14:29:17Z</time>
      </trkpt>
      <trkpt lat="44.40152" lon="4.16124">
        <ele>247</ele>
        <time>2019-02-08T14:29:28Z</time>
      </trkpt>
      <trkpt lat="44.40161" lon="4.16107">
        <ele>247</ele>
        <time>2019-02-08T14:29:49Z</time>
      </trkpt>
      <trkpt lat="44.40162" lon="4.16103">
        <ele>248</ele>
        <time>2019-02-08T14:29:53Z</time>
      </trkpt>
      <trkpt lat="44.40164" lon="4.16099">
        <ele>248</ele>
        <time>2019-02-08T14:29:57Z</time>
      </trkpt>
      <trkpt lat="44.40166" lon="4.16095">
        <ele>249</ele>
        <time>2019-02-08T14:30:01Z</time>
      </trkpt>
      <trkpt lat="44.40167" lon="4.16091">
        <ele>249</ele>
        <time>2019-02-08T14:30:04Z</time>
      </trkpt>
      <trkpt lat="44.4017" lon="4.16079">
        <ele>250</ele>
        <time>2019-02-08T14:30:14Z</time>
      </trkpt>
      <trkpt lat="44.40171" lon="4.1607">
        <ele>250</ele>
        <time>2019-02-08T14:30:21Z</time>
      </trkpt>
      <trkpt lat="44.40169" lon="4.16057">
        <ele>250</ele>
        <time>2019-02-08T14:30:31Z</time>
      </trkpt>
      <trkpt lat="44.4016" lon="4.16031">
        <ele>253</ele>
        <time>2019-02-08T14:30:57Z</time>
      </trkpt>
      <trkpt lat="44.40152" lon="4.16003">
        <ele>252</ele>
        <time>2019-02-08T14:31:25Z</time>
      </trkpt>
      <trkpt lat="44.40152" lon="4.15998">
        <ele>252</ele>
        <time>2019-02-08T14:31:29Z</time>
      </trkpt>
      <trkpt lat="44.40151" lon="4.15994">
        <ele>252</ele>
        <time>2019-02-08T14:31:41Z</time>
      </trkpt>
      <trkpt lat="44.40149" lon="4.15991">
        <ele>252</ele>
        <time>2019-02-08T14:31:45Z</time>
      </trkpt>
      <trkpt lat="44.40144" lon="4.15971">
        <ele>255</ele>
        <time>2019-02-08T14:32:05Z</time>
      </trkpt>
      <trkpt lat="44.40139" lon="4.15951">
        <ele>255</ele>
        <time>2019-02-08T14:32:23Z</time>
      </trkpt>
      <trkpt lat="44.40131" lon="4.15919">
        <ele>253</ele>
        <time>2019-02-08T14:32:53Z</time>
      </trkpt>
      <trkpt lat="44.4013" lon="4.15914">
        <ele>253</ele>
        <time>2019-02-08T14:32:58Z</time>
      </trkpt>
      <trkpt lat="44.40121" lon="4.15879">
        <ele>252</ele>
        <time>2019-02-08T14:33:29Z</time>
      </trkpt>
      <trkpt lat="44.40116" lon="4.15863">
        <ele>253</ele>
        <time>2019-02-08T14:33:44Z</time>
      </trkpt>
      <trkpt lat="44.4011" lon="4.15844">
        <ele>253</ele>
        <time>2019-02-08T14:34:01Z</time>
      </trkpt>
      <trkpt lat="44.40108" lon="4.15841">
        <ele>253</ele>
        <time>2019-02-08T14:34:04Z</time>
      </trkpt>
      <trkpt lat="44.40107" lon="4.15837">
        <ele>253</ele>
        <time>2019-02-08T14:34:08Z</time>
      </trkpt>
      <trkpt lat="44.40106" lon="4.15832">
        <ele>254</ele>
        <time>2019-02-08T14:34:12Z</time>
      </trkpt>
      <trkpt lat="44.40105" lon="4.15829">
        <ele>254</ele>
        <time>2019-02-08T14:34:16Z</time>
      </trkpt>
      <trkpt lat="44.40099" lon="4.15815">
        <ele>254</ele>
        <time>2019-02-08T14:34:31Z</time>
      </trkpt>
      <trkpt lat="44.40098" lon="4.15811">
        <ele>254</ele>
        <time>2019-02-08T14:34:35Z</time>
      </trkpt>
      <trkpt lat="44.40091" lon="4.15782">
        <ele>253</ele>
        <time>2019-02-08T14:35:04Z</time>
      </trkpt>
      <trkpt lat="44.40089" lon="4.15778">
        <ele>253</ele>
        <time>2019-02-08T14:35:08Z</time>
      </trkpt>
      <trkpt lat="44.40083" lon="4.15746">
        <ele>254</ele>
        <time>2019-02-08T14:35:38Z</time>
      </trkpt>
      <trkpt lat="44.40082" lon="4.15741">
        <ele>254</ele>
        <time>2019-02-08T14:35:42Z</time>
      </trkpt>
      <trkpt lat="44.40081" lon="4.15737">
        <ele>254</ele>
        <time>2019-02-08T14:35:46Z</time>
      </trkpt>
      <trkpt lat="44.40076" lon="4.15702">
        <ele>253</ele>
        <time>2019-02-08T14:36:17Z</time>
      </trkpt>
      <trkpt lat="44.40071" lon="4.15669">
        <ele>252</ele>
        <time>2019-02-08T14:36:45Z</time>
      </trkpt>
      <trkpt lat="44.40071" lon="4.15665">
        <ele>252</ele>
        <time>2019-02-08T14:36:49Z</time>
      </trkpt>
      <trkpt lat="44.40072" lon="4.15661">
        <ele>252</ele>
        <time>2019-02-08T14:36:53Z</time>
      </trkpt>
      <trkpt lat="44.40072" lon="4.15657">
        <ele>252</ele>
        <time>2019-02-08T14:36:58Z</time>
      </trkpt>
      <trkpt lat="44.40071" lon="4.15652">
        <ele>253</ele>
        <time>2019-02-08T14:37:10Z</time>
      </trkpt>
      <trkpt lat="44.4007" lon="4.15648">
        <ele>253</ele>
        <time>2019-02-08T14:37:14Z</time>
      </trkpt>
      <trkpt lat="44.40069" lon="4.15645">
        <ele>254</ele>
        <time>2019-02-08T14:37:31Z</time>
      </trkpt>
      <trkpt lat="44.40068" lon="4.15641">
        <ele>253</ele>
        <time>2019-02-08T14:37:35Z</time>
      </trkpt>
      <trkpt lat="44.40063" lon="4.15619">
        <ele>253</ele>
        <time>2019-02-08T14:38:00Z</time>
      </trkpt>
      <trkpt lat="44.40061" lon="4.15615">
        <ele>253</ele>
        <time>2019-02-08T14:38:04Z</time>
      </trkpt>
      <trkpt lat="44.4006" lon="4.15611">
        <ele>253</ele>
        <time>2019-02-08T14:38:09Z</time>
      </trkpt>
      <trkpt lat="44.40059" lon="4.15594">
        <ele>251</ele>
        <time>2019-02-08T14:38:23Z</time>
      </trkpt>
      <trkpt lat="44.40063" lon="4.15569">
        <ele>252</ele>
        <time>2019-02-08T14:38:57Z</time>
      </trkpt>
      <trkpt lat="44.40064" lon="4.15564">
        <ele>252</ele>
        <time>2019-02-08T14:39:01Z</time>
      </trkpt>
      <trkpt lat="44.40065" lon="4.1556">
        <ele>252</ele>
        <time>2019-02-08T14:39:06Z</time>
      </trkpt>
      <trkpt lat="44.40067" lon="4.15553">
        <ele>252</ele>
        <time>2019-02-08T14:39:13Z</time>
      </trkpt>
      <trkpt lat="44.40068" lon="4.1554">
        <ele>251</ele>
        <time>2019-02-08T14:39:25Z</time>
      </trkpt>
      <trkpt lat="44.40075" lon="4.15507">
        <ele>252</ele>
        <time>2019-02-08T14:39:56Z</time>
      </trkpt>
      <trkpt lat="44.40076" lon="4.15503">
        <ele>252</ele>
        <time>2019-02-08T14:39:59Z</time>
      </trkpt>
      <trkpt lat="44.40077" lon="4.15486">
        <ele>252</ele>
        <time>2019-02-08T14:40:13Z</time>
      </trkpt>
      <trkpt lat="44.40076" lon="4.15457">
        <ele>251</ele>
        <time>2019-02-08T14:40:36Z</time>
      </trkpt>
      <trkpt lat="44.40076" lon="4.1543">
        <ele>250</ele>
        <time>2019-02-08T14:41:00Z</time>
      </trkpt>
      <trkpt lat="44.40077" lon="4.15426">
        <ele>250</ele>
        <time>2019-02-08T14:41:03Z</time>
      </trkpt>
      <trkpt lat="44.4008" lon="4.15389">
        <ele>251</ele>
        <time>2019-02-08T14:41:34Z</time>
      </trkpt>
      <trkpt lat="44.4008" lon="4.15375">
        <ele>251</ele>
        <time>2019-02-08T14:41:45Z</time>
      </trkpt>
      <trkpt lat="44.40081" lon="4.15367">
        <ele>251</ele>
        <time>2019-02-08T14:41:51Z</time>
      </trkpt>
      <trkpt lat="44.4008" lon="4.15362">
        <ele>251</ele>
        <time>2019-02-08T14:41:55Z</time>
      </trkpt>
      <trkpt lat="44.40081" lon="4.15348">
        <ele>251</ele>
        <time>2019-02-08T14:42:07Z</time>
      </trkpt>
      <trkpt lat="44.40081" lon="4.15344">
        <ele>251</ele>
        <time>2019-02-08T14:42:10Z</time>
      </trkpt>
      <trkpt lat="44.40081" lon="4.1533">
        <ele>251</ele>
        <time>2019-02-08T14:42:21Z</time>
      </trkpt>
      <trkpt lat="44.40084" lon="4.15328">
        <ele>251</ele>
        <time>2019-02-08T14:42:26Z</time>
      </trkpt>
      <trkpt lat="44.40082" lon="4.15326">
        <ele>251</ele>
        <time>2019-02-08T14:42:39Z</time>
      </trkpt>
      <trkpt lat="44.40084" lon="4.15303">
        <ele>252</ele>
        <time>2019-02-08T14:42:59Z</time>
      </trkpt>
      <trkpt lat="44.40084" lon="4.15299">
        <ele>253</ele>
        <time>2019-02-08T14:43:03Z</time>
      </trkpt>
      <trkpt lat="44.40083" lon="4.15285">
        <ele>253</ele>
        <time>2019-02-08T14:43:15Z</time>
      </trkpt>
      <trkpt lat="44.40086" lon="4.15272">
        <ele>253</ele>
        <time>2019-02-08T14:43:26Z</time>
      </trkpt>
      <trkpt lat="44.40088" lon="4.15264">
        <ele>253</ele>
        <time>2019-02-08T14:43:34Z</time>
      </trkpt>
      <trkpt lat="44.4009" lon="4.1526">
        <ele>253</ele>
        <time>2019-02-08T14:43:38Z</time>
      </trkpt>
      <trkpt lat="44.40096" lon="4.1524">
        <ele>254</ele>
        <time>2019-02-08T14:43:55Z</time>
      </trkpt>
      <trkpt lat="44.40098" lon="4.15218">
        <ele>253</ele>
        <time>2019-02-08T14:44:15Z</time>
      </trkpt>
      <trkpt lat="44.40099" lon="4.15214">
        <ele>252</ele>
        <time>2019-02-08T14:44:19Z</time>
      </trkpt>
      <trkpt lat="44.40103" lon="4.15176">
        <ele>254</ele>
        <time>2019-02-08T14:44:51Z</time>
      </trkpt>
      <trkpt lat="44.40107" lon="4.15163">
        <ele>253</ele>
        <time>2019-02-08T14:45:03Z</time>
      </trkpt>
      <trkpt lat="44.40107" lon="4.1516">
        <ele>253</ele>
        <time>2019-02-08T14:45:07Z</time>
      </trkpt>
      <trkpt lat="44.40115" lon="4.15132">
        <ele>255</ele>
        <time>2019-02-08T14:45:31Z</time>
      </trkpt>
      <trkpt lat="44.40116" lon="4.15123">
        <ele>256</ele>
        <time>2019-02-08T14:45:38Z</time>
      </trkpt>
      <trkpt lat="44.40117" lon="4.1511">
        <ele>255</ele>
        <time>2019-02-08T14:45:51Z</time>
      </trkpt>
      <trkpt lat="44.40118" lon="4.15072">
        <ele>255</ele>
        <time>2019-02-08T14:46:23Z</time>
      </trkpt>
      <trkpt lat="44.40124" lon="4.15037">
        <ele>253</ele>
        <time>2019-02-08T14:46:54Z</time>
      </trkpt>
      <trkpt lat="44.40126" lon="4.1503">
        <ele>253</ele>
        <time>2019-02-08T14:47:01Z</time>
      </trkpt>
      <trkpt lat="44.40132" lon="4.15">
        <ele>254</ele>
        <time>2019-02-08T14:47:26Z</time>
      </trkpt>
      <trkpt lat="44.40136" lon="4.14984">
        <ele>254</ele>
        <time>2019-02-08T14:47:41Z</time>
      </trkpt>
      <trkpt lat="44.40136" lon="4.14959">
        <ele>254</ele>
        <time>2019-02-08T14:48:05Z</time>
      </trkpt>
      <trkpt lat="44.40144" lon="4.14931">
        <ele>255</ele>
        <time>2019-02-08T14:48:40Z</time>
      </trkpt>
    </trkseg>
  </trk>
</gpx>